Sandy Hook, Missouri
Current Conditions -  °F | °C
As of 8:54 AM on Thursday 23 Oct 2014 (Local Time) from KCOU Reporting Station
Overcast Overcast  
Wind Chill: 50°   Ceiling: 4400
Heat Index: 50°   Visibility: 10mi
Dew Point: 44°   Wind: 9mph
Humidity: 80%   Direction: 160°SSE
Pressure: 30.16"   Gusts: NA
Location:  38.7914°N, 92.4851°W
Report Text: KCOU 231354Z 16008KT 10SM OVC044 10/07 A3016 RMK AO2 SLP215 T01000067
Loading
Personal Weather Stations






























Interactive Weather Map
Tropical Storm Tracking
New forecast layout! Learn more

10-Day Weather Forecast

Advertisements
Track Severe Weather on mobile